createdAt,value
2017-02-13T00:09:43.132Z,1034.6
2017-02-13T00:10:45.585Z,1034.6
2017-02-13T00:12:50.454Z,1034.6
2017-02-13T00:14:55.324Z,1034.6
2017-02-13T00:15:57.815Z,1034.6
2017-02-13T00:17:00.295Z,1034.5
2017-02-13T00:19:05.509Z,1034.6
2017-02-13T00:20:07.985Z,1034.6
2017-02-13T00:22:12.680Z,1034.7
2017-02-13T00:23:14.977Z,1034.6
2017-02-13T00:24:17.437Z,1034.7
2017-02-13T00:25:19.901Z,1034.7
2017-02-13T00:26:22.395Z,1034.6
2017-02-13T00:27:24.879Z,1034.6
2017-02-13T00:28:27.372Z,1034.6
2017-02-13T00:29:29.842Z,1034.6
2017-02-13T00:30:32.304Z,1034.6
2017-02-13T00:31:34.762Z,1034.5
2017-02-13T00:32:37.230Z,1034.6
2017-02-13T00:33:39.708Z,1034.6
2017-02-13T00:34:42.349Z,1034.6
2017-02-13T00:35:44.813Z,1034.5
2017-02-13T00:36:47.280Z,1034.5
2017-02-13T00:38:52.168Z,1034.5
2017-02-13T00:40:57.024Z,1034.6
2017-02-13T00:41:59.489Z,1034.6
2017-02-13T00:44:04.350Z,1034.6
2017-02-13T00:45:06.810Z,1034.6
2017-02-13T00:46:09.095Z,1034.6
2017-02-13T00:47:11.549Z,1034.6
2017-02-13T00:48:14.017Z,1034.6
2017-02-13T00:49:16.470Z,1034.6
2017-02-13T00:50:18.923Z,1034.7
2017-02-13T00:51:21.723Z,1034.7
2017-02-13T00:52:24.203Z,1034.7
2017-02-13T00:53:26.663Z,1034.8
2017-02-13T00:54:29.120Z,1034.7
2017-02-13T00:57:36.393Z,1034.9
2017-02-13T00:58:38.848Z,1034.8
2017-02-13T00:59:41.323Z,1034.7
2017-02-13T01:00:43.791Z,1034.8
2017-02-13T01:01:46.243Z,1034.8
2017-02-13T01:02:48.720Z,1034.8
2017-02-13T01:03:51.177Z,1034.8
2017-02-13T01:04:53.633Z,1034.8
2017-02-13T01:05:56.080Z,1034.8
2017-02-13T01:06:58.540Z,1034.9
2017-02-13T01:08:00.988Z,1034.9
2017-02-13T01:09:03.442Z,1034.8
2017-02-13T01:10:05.898Z,1034.9
2017-02-13T01:11:08.015Z,1034.9
2017-02-13T01:12:10.486Z,1034.9
2017-02-13T01:13:12.952Z,1034.9
2017-02-13T01:14:15.595Z,1034.9
2017-02-13T01:15:18.059Z,1034.9
2017-02-13T01:16:20.513Z,1034.9
2017-02-13T01:17:22.979Z,1034.9
2017-02-13T01:18:25.483Z,1034.9
2017-02-13T01:19:27.945Z,1034.9
2017-02-13T01:20:30.402Z,1034.9
2017-02-13T01:21:32.863Z,1034.9
2017-02-13T01:22:35.343Z,1035
2017-02-13T01:23:37.794Z,1034.9
2017-02-13T01:24:40.261Z,1034.9
2017-02-13T01:25:42.713Z,1035
2017-02-13T01:26:45.165Z,1035
2017-02-13T01:27:47.654Z,1035
2017-02-13T01:28:50.142Z,1035
2017-02-13T01:30:55.015Z,1035
2017-02-13T01:31:57.468Z,1035
2017-02-13T01:32:59.930Z,1035
2017-02-13T01:34:02.391Z,1035
2017-02-13T01:35:04.853Z,1035
2017-02-13T01:36:07.312Z,1035
2017-02-13T01:37:09.765Z,1034.9
2017-02-13T01:38:12.217Z,1034.9
2017-02-13T01:39:14.678Z,1034.9
2017-02-13T01:40:17.165Z,1035
2017-02-13T01:41:19.632Z,1035
2017-02-13T01:42:22.084Z,1035
2017-02-13T01:43:24.065Z,1035
2017-02-13T01:44:26.523Z,1035
2017-02-13T01:45:28.997Z,1035
2017-02-13T01:46:31.791Z,1035
2017-02-13T01:47:34.246Z,1035
2017-02-13T01:48:36.723Z,1034.9
2017-02-13T01:49:39.193Z,1034.9
2017-02-13T01:50:41.672Z,1034.9
2017-02-13T01:51:43.671Z,1034.9
2017-02-13T01:52:46.127Z,1035
2017-02-13T01:53:48.584Z,1034.9
2017-02-13T01:54:51.040Z,1035
2017-02-13T01:55:53.516Z,1035
2017-02-13T01:56:55.978Z,1034.9
2017-02-13T01:57:58.446Z,1034.9
2017-02-13T01:59:00.906Z,1034.8
2017-02-13T02:00:03.379Z,1034.8
2017-02-13T02:01:05.832Z,1034.8
2017-02-13T02:02:08.281Z,1034.8
2017-02-13T02:03:11.083Z,1034.8
2017-02-13T02:04:13.552Z,1034.9
2017-02-13T02:05:16.012Z,1034.9
2017-02-13T02:06:18.465Z,1034.9
2017-02-13T02:07:20.438Z,1034.9
2017-02-13T02:08:22.919Z,1034.9
2017-02-13T02:09:25.416Z,1034.9
2017-02-13T02:10:27.884Z,1034.9
2017-02-13T02:11:30.346Z,1034.9
2017-02-13T02:12:32.809Z,1034.9
2017-02-13T02:13:35.275Z,1034.9
2017-02-13T02:14:37.753Z,1034.8
2017-02-13T02:15:40.218Z,1034.8
2017-02-13T02:16:42.677Z,1034.8
2017-02-13T02:17:45.169Z,1034.9
2017-02-13T02:18:47.630Z,1034.8
2017-02-13T02:19:50.090Z,1034.8
2017-02-13T02:20:52.546Z,1034.9
2017-02-13T02:21:55.177Z,1034.9
2017-02-13T02:22:57.644Z,1034.9
2017-02-13T02:23:59.763Z,1034.9
2017-02-13T02:25:02.230Z,1034.9
2017-02-13T02:26:04.701Z,1034.9
2017-02-13T02:27:07.150Z,1034.9
2017-02-13T02:28:09.437Z,1034.9
2017-02-13T02:29:11.905Z,1034.9
2017-02-13T02:30:14.357Z,1034.9
2017-02-13T02:31:16.846Z,1034.9
2017-02-13T02:32:19.300Z,1034.9
2017-02-13T02:33:21.765Z,1035
2017-02-13T02:34:24.225Z,1035
2017-02-13T02:35:26.690Z,1035
2017-02-13T02:36:29.154Z,1035
2017-02-13T02:37:31.617Z,1035
2017-02-13T02:38:34.071Z,1034.9
2017-02-13T02:40:38.936Z,1035
2017-02-13T02:41:41.391Z,1035
2017-02-13T02:42:43.853Z,1035
2017-02-13T02:43:46.324Z,1035.1
2017-02-13T02:44:48.775Z,1035.1
2017-02-13T02:45:51.235Z,1035.1
2017-02-13T02:46:53.691Z,1035.1
2017-02-13T02:47:56.152Z,1035.1
2017-02-13T02:48:58.615Z,1035.1
2017-02-13T02:50:01.069Z,1035.1
2017-02-13T02:51:03.542Z,1035.1
2017-02-13T02:52:05.989Z,1035.1
2017-02-13T02:53:08.291Z,1035.2
2017-02-13T02:54:10.771Z,1035.2
2017-02-13T02:55:13.247Z,1035.3
2017-02-13T02:56:15.876Z,1035.3
2017-02-13T02:57:18.353Z,1035.3
2017-02-13T02:58:20.804Z,1035.3
2017-02-13T02:59:23.283Z,1035.2
2017-02-13T03:00:25.747Z,1035.3
2017-02-13T03:01:28.212Z,1035.2
2017-02-13T03:02:30.692Z,1035.3
2017-02-13T03:03:32.657Z,1035.3
2017-02-13T03:04:35.109Z,1035.4
2017-02-13T03:05:37.558Z,1035.4
2017-02-13T03:06:40.015Z,1035.4
2017-02-13T03:07:42.471Z,1035.4
2017-02-13T03:08:44.924Z,1035.4
2017-02-13T03:09:47.380Z,1035.4
2017-02-13T03:10:49.853Z,1035.4
2017-02-13T03:11:52.305Z,1035.4
2017-02-13T03:12:54.773Z,1035.4
2017-02-13T03:14:59.633Z,1035.3
2017-02-13T03:16:02.101Z,1035.5
2017-02-13T03:17:04.559Z,1035.4
2017-02-13T03:18:07.018Z,1035.4
2017-02-13T03:19:09.814Z,1035.4
2017-02-13T03:20:11.765Z,1035.4
2017-02-13T03:21:14.220Z,1035.4
2017-02-13T03:22:16.672Z,1035.4
2017-02-13T03:23:19.149Z,1035.3
2017-02-13T03:24:21.601Z,1035.4
2017-02-13T03:25:24.058Z,1035.3
2017-02-13T03:26:26.518Z,1035.3
2017-02-13T03:27:29.339Z,1035.3
2017-02-13T03:28:31.814Z,1035.4
2017-02-13T03:29:33.772Z,1035.4
2017-02-13T03:30:36.232Z,1035.4
2017-02-13T03:31:38.712Z,1035.3
2017-02-13T03:32:41.181Z,1035.3
2017-02-13T03:33:43.638Z,1035.3
2017-02-13T03:34:46.114Z,1035.2
2017-02-13T03:35:48.577Z,1035.3
2017-02-13T03:36:51.066Z,1035.3
2017-02-13T03:37:53.580Z,1035.3
2017-02-13T03:38:56.044Z,1035.3
2017-02-13T03:39:58.511Z,1035.3
2017-02-13T03:41:00.993Z,1035.4
2017-02-13T03:42:03.450Z,1035.5
2017-02-13T03:43:05.785Z,1035.5
2017-02-13T03:44:08.104Z,1035.5
2017-02-13T03:45:10.398Z,1035.5
2017-02-13T03:46:12.876Z,1035.5
2017-02-13T03:47:15.341Z,1035.5
2017-02-13T03:48:17.822Z,1035.5
2017-02-13T03:49:20.273Z,1035.4
2017-02-13T03:50:22.750Z,1035.4
2017-02-13T03:51:25.198Z,1035.5
2017-02-13T03:52:27.655Z,1035.4
2017-02-13T03:53:30.123Z,1035.4
2017-02-13T03:54:32.576Z,1035.4
2017-02-13T03:55:35.077Z,1035.4
2017-02-13T03:56:37.553Z,1035.4
2017-02-13T03:57:40.017Z,1035.4
2017-02-13T03:58:42.474Z,1035.3
2017-02-13T03:59:44.931Z,1035.4
2017-02-13T04:00:47.403Z,1035.4
2017-02-13T04:01:49.856Z,1035.4
2017-02-13T04:02:52.332Z,1035.4
2017-02-13T04:03:54.788Z,1035.4
2017-02-13T04:04:57.265Z,1035.5
2017-02-13T04:05:59.242Z,1035.4
2017-02-13T04:07:01.724Z,1035.4
2017-02-13T04:08:04.202Z,1035.4
2017-02-13T04:09:06.672Z,1035.4
2017-02-13T04:10:09.124Z,1035.4
2017-02-13T04:11:11.588Z,1035.5
2017-02-13T04:12:14.206Z,1035.4
2017-02-13T04:13:16.663Z,1035.4
2017-02-13T04:14:19.117Z,1035.4
2017-02-13T04:15:21.582Z,1035.4
2017-02-13T04:17:26.441Z,1035.4
2017-02-13T04:18:28.903Z,1035.4
2017-02-13T04:19:31.368Z,1035.5
2017-02-13T04:20:33.820Z,1035.4
2017-02-13T04:21:36.293Z,1035.5
2017-02-13T04:22:38.752Z,1035.5
2017-02-13T04:23:41.050Z,1035.5
2017-02-13T04:24:43.549Z,1035.4
2017-02-13T04:26:48.438Z,1035.4
2017-02-13T04:27:50.747Z,1035.4
2017-02-13T04:29:55.621Z,1035.4
2017-02-13T04:30:58.070Z,1035.5
2017-02-13T04:32:00.527Z,1035.4
2017-02-13T04:33:02.980Z,1035.4
2017-02-13T04:34:05.467Z,1035.5
2017-02-13T04:35:07.778Z,1035.4
2017-02-13T04:36:10.471Z,1035.4
2017-02-13T04:37:12.422Z,1035.4
2017-02-13T04:38:15.221Z,1035.4
2017-02-13T04:39:17.689Z,1035.4
2017-02-13T04:41:22.578Z,1035.4
2017-02-13T04:42:25.042Z,1035.3
2017-02-13T04:43:27.350Z,1035.4
2017-02-13T04:44:29.833Z,1035.3
2017-02-13T04:45:32.282Z,1035.5
2017-02-13T04:46:34.622Z,1035.4
2017-02-13T04:48:39.490Z,1035.4
2017-02-13T04:49:41.942Z,1035.5
2017-02-13T04:50:44.568Z,1035.5
2017-02-13T04:51:47.041Z,1035.5
2017-02-13T04:52:49.494Z,1035.5
2017-02-13T04:53:51.448Z,1035.5
2017-02-13T04:54:53.906Z,1035.5
2017-02-13T04:55:56.365Z,1035.4
2017-02-13T04:56:58.824Z,1035.5
2017-02-13T04:58:01.281Z,1035.5
2017-02-13T04:59:03.743Z,1035.6
2017-02-13T05:00:06.207Z,1035.6
2017-02-13T05:01:08.531Z,1035.6
2017-02-13T05:02:11.005Z,1035.5
2017-02-13T05:03:13.822Z,1035.5
2017-02-13T05:04:16.284Z,1035.5
2017-02-13T05:05:18.261Z,1035.6
2017-02-13T05:06:20.744Z,1035.6
2017-02-13T05:07:23.195Z,1035.6
2017-02-13T05:08:25.650Z,1035.6
2017-02-13T05:09:28.104Z,1035.6
2017-02-13T05:10:30.574Z,1035.7
2017-02-13T05:11:33.024Z,1035.7
2017-02-13T05:12:35.482Z,1035.6
2017-02-13T05:13:37.947Z,1035.6
2017-02-13T05:14:40.403Z,1035.6
2017-02-13T05:15:42.851Z,1035.6
2017-02-13T05:16:45.311Z,1035.6
2017-02-13T05:17:47.825Z,1035.6
2017-02-13T05:18:50.309Z,1035.7
2017-02-13T05:19:52.757Z,1035.6
2017-02-13T05:20:55.227Z,1035.6
2017-02-13T05:21:57.685Z,1035.6
2017-02-13T05:23:00.156Z,1035.6
2017-02-13T05:24:02.128Z,1035.6
2017-02-13T05:25:04.597Z,1035.6
2017-02-13T05:26:07.053Z,1035.6
2017-02-13T05:27:09.535Z,1035.6
2017-02-13T05:28:11.990Z,1035.6
2017-02-13T05:30:16.867Z,1035.7
2017-02-13T05:31:19.362Z,1035.7
2017-02-13T05:32:21.843Z,1035.7
2017-02-13T05:33:24.137Z,1035.7
2017-02-13T05:34:26.586Z,1035.7
2017-02-13T05:35:29.039Z,1035.7
2017-02-13T05:36:31.503Z,1035.6
2017-02-13T05:37:33.959Z,1035.6
2017-02-13T05:38:36.416Z,1035.7
2017-02-13T05:39:38.872Z,1035.7
2017-02-13T05:40:41.167Z,1035.6
2017-02-13T05:41:43.622Z,1035.6
2017-02-13T05:42:46.103Z,1035.5
2017-02-13T05:43:48.565Z,1035.6
2017-02-13T05:44:51.042Z,1035.6
2017-02-13T05:45:53.510Z,1035.6
2017-02-13T05:46:55.970Z,1035.6
2017-02-13T05:49:00.842Z,1035.6
2017-02-13T05:50:03.332Z,1035.6
2017-02-13T05:51:05.791Z,1035.6
2017-02-13T05:52:08.256Z,1035.5
2017-02-13T05:53:10.219Z,1035.5
2017-02-13T05:54:12.669Z,1035.5
2017-02-13T05:55:15.296Z,1035.5
2017-02-13T05:56:17.743Z,1035.5
2017-02-13T05:58:22.606Z,1035.4
2017-02-13T05:59:25.070Z,1035.4
2017-02-13T06:00:27.581Z,1035.5
2017-02-13T06:01:30.052Z,1035.5
2017-02-13T06:02:32.505Z,1035.5
2017-02-13T06:03:34.976Z,1035.6
2017-02-13T06:04:37.433Z,1035.5
2017-02-13T06:05:39.383Z,1035.6
2017-02-13T06:06:41.847Z,1035.6
2017-02-13T06:07:44.307Z,1035.6
2017-02-13T06:08:46.812Z,1035.6
2017-02-13T06:09:49.288Z,1035.7
2017-02-13T06:10:51.745Z,1035.6
2017-02-13T06:11:54.202Z,1035.5
2017-02-13T06:12:56.653Z,1035.6
2017-02-13T06:13:59.149Z,1035.6
2017-02-13T06:15:01.611Z,1035.6
2017-02-13T06:16:04.080Z,1035.5
2017-02-13T06:17:06.543Z,1035.6
2017-02-13T06:18:09.000Z,1035.5
2017-02-13T06:19:10.990Z,1035.5
2017-02-13T06:20:13.453Z,1035.5
2017-02-13T06:21:16.143Z,1035.5
2017-02-13T06:22:18.641Z,1035.5
2017-02-13T06:23:21.101Z,1035.5
2017-02-13T06:24:23.561Z,1035.6
2017-02-13T06:25:26.018Z,1035.6
2017-02-13T06:26:28.494Z,1035.6
2017-02-13T06:27:30.446Z,1035.6
2017-02-13T06:28:32.911Z,1035.6
2017-02-13T06:29:35.363Z,1035.6
2017-02-13T06:30:38.158Z,1035.6
2017-02-13T06:31:40.636Z,1035.6
2017-02-13T06:32:43.083Z,1035.6
2017-02-13T06:33:45.055Z,1035.6
2017-02-13T06:34:47.508Z,1035.6
2017-02-13T06:35:50.311Z,1035.6
2017-02-13T06:37:55.164Z,1035.5
2017-02-13T06:38:57.615Z,1035.6
2017-02-13T06:40:00.072Z,1035.6
2017-02-13T06:41:02.532Z,1035.6
2017-02-13T06:42:04.490Z,1035.6
2017-02-13T06:43:06.958Z,1035.6
2017-02-13T06:44:09.425Z,1035.6
2017-02-13T06:45:12.233Z,1035.7
2017-02-13T06:46:14.532Z,1035.6
2017-02-13T06:47:17.001Z,1035.7
2017-02-13T06:48:19.457Z,1035.7
2017-02-13T06:49:21.916Z,1035.7
2017-02-13T06:50:24.365Z,1035.7
2017-02-13T06:51:26.326Z,1035.8
2017-02-13T06:52:28.787Z,1035.7
2017-02-13T06:53:31.252Z,1035.7
2017-02-13T06:54:33.725Z,1035.7
2017-02-13T06:55:36.181Z,1035.7
2017-02-13T06:56:38.656Z,1035.7
2017-02-13T06:57:40.940Z,1035.7
2017-02-13T06:58:43.400Z,1035.7
2017-02-13T06:59:45.863Z,1035.8
2017-02-13T07:00:48.342Z,1035.8
2017-02-13T07:01:50.794Z,1035.8
2017-02-13T07:02:53.270Z,1035.8
2017-02-13T07:03:55.750Z,1035.8
2017-02-13T07:04:58.204Z,1035.8
2017-02-13T07:07:03.099Z,1035.8
2017-02-13T07:08:05.407Z,1035.8
2017-02-13T07:09:07.859Z,1035.8
2017-02-13T07:10:10.320Z,1035.8
2017-02-13T07:11:12.788Z,1035.8
2017-02-13T07:12:15.414Z,1035.8
2017-02-13T07:13:17.862Z,1035.8
2017-02-13T07:14:19.859Z,1035.8
2017-02-13T07:15:22.333Z,1035.8
2017-02-13T07:16:24.797Z,1035.9
2017-02-13T07:17:27.269Z,1035.9
2017-02-13T07:18:29.723Z,1035.9
2017-02-13T07:19:32.193Z,1036
2017-02-13T07:20:34.649Z,1036
2017-02-13T07:21:37.109Z,1036
2017-02-13T07:22:39.571Z,1036
2017-02-13T07:23:42.023Z,1035.9
2017-02-13T07:24:44.491Z,1035.9
2017-02-13T07:25:46.943Z,1036
2017-02-13T07:26:49.435Z,1036
2017-02-13T07:28:54.300Z,1036
2017-02-13T07:29:56.749Z,1036
2017-02-13T07:30:59.213Z,1036
2017-02-13T07:32:01.186Z,1036
2017-02-13T07:33:03.639Z,1036
2017-02-13T07:34:06.093Z,1036.1
2017-02-13T07:35:08.544Z,1036
2017-02-13T07:36:10.995Z,1036.1
2017-02-13T07:37:13.468Z,1036.1
2017-02-13T07:38:15.946Z,1036.1
2017-02-13T07:39:18.413Z,1036.1
2017-02-13T07:40:20.897Z,1036.1
2017-02-13T07:41:23.346Z,1036.1
2017-02-13T07:42:25.795Z,1036.1
2017-02-13T07:43:28.254Z,1036.1
2017-02-13T07:44:30.711Z,1036.1
2017-02-13T07:45:33.030Z,1036.1
2017-02-13T07:46:35.696Z,1036.3
2017-02-13T07:47:38.155Z,1036.1
2017-02-13T07:48:40.124Z,1036.1
2017-02-13T07:49:42.591Z,1036.1
2017-02-13T07:50:45.391Z,1036.1
2017-02-13T07:51:47.842Z,1036.1
2017-02-13T07:52:49.983Z,1036
2017-02-13T07:53:52.449Z,1036
2017-02-13T07:54:54.910Z,1036
2017-02-13T07:55:57.365Z,1036.1
2017-02-13T07:58:02.237Z,1036
2017-02-13T07:59:04.702Z,1036.1
2017-02-13T08:00:07.158Z,1036
2017-02-13T08:01:09.441Z,1036
2017-02-13T08:02:11.927Z,1036
2017-02-13T08:03:14.720Z,1036
2017-02-13T08:04:17.182Z,1036
2017-02-13T08:05:19.144Z,1036
2017-02-13T08:06:21.599Z,1036
2017-02-13T08:07:24.050Z,1036
2017-02-13T08:08:26.523Z,1036
2017-02-13T08:09:28.983Z,1036
2017-02-13T08:10:31.458Z,1036
2017-02-13T08:11:34.255Z,1036
2017-02-13T08:12:36.736Z,1036
2017-02-13T08:13:38.695Z,1035.9
2017-02-13T08:14:41.491Z,1035.9
2017-02-13T08:15:43.955Z,1035.9
2017-02-13T08:16:46.407Z,1035.9
2017-02-13T08:17:48.864Z,1035.9
2017-02-13T08:18:51.006Z,1035.8
2017-02-13T08:19:53.466Z,1035.9
2017-02-13T08:20:55.936Z,1035.8
2017-02-13T08:21:58.403Z,1035.8
2017-02-13T08:23:00.875Z,1035.9
2017-02-13T08:24:03.332Z,1035.9
2017-02-13T08:25:05.619Z,1035.8
2017-02-13T08:26:08.102Z,1035.9
2017-02-13T08:27:10.569Z,1035.9
2017-02-13T08:28:13.024Z,1035.9
2017-02-13T08:29:15.513Z,1035.9
2017-02-13T08:30:18.010Z,1035.9
2017-02-13T08:31:20.483Z,1035.9
2017-02-13T08:32:22.943Z,1035.8
2017-02-13T08:33:25.406Z,1035.9
2017-02-13T08:34:27.697Z,1035.8
2017-02-13T08:35:30.167Z,1035.9
2017-02-13T08:36:32.640Z,1035.9
2017-02-13T08:37:35.096Z,1035.8
2017-02-13T08:38:37.549Z,1035.8
2017-02-13T08:39:40.019Z,1035.9
2017-02-13T08:40:42.477Z,1035.8
2017-02-13T08:41:44.933Z,1035.9
2017-02-13T08:44:52.213Z,1035.9
2017-02-13T08:45:54.668Z,1036
2017-02-13T08:46:57.129Z,1035.8
2017-02-13T08:47:59.602Z,1035.9
2017-02-13T08:49:02.100Z,1035.8
2017-02-13T08:50:04.565Z,1035.8
2017-02-13T08:51:07.037Z,1035.8
2017-02-13T08:52:09.335Z,1035.7
2017-02-13T08:53:11.820Z,1035.7
2017-02-13T08:54:14.453Z,1035.7
2017-02-13T08:55:16.905Z,1035.7
2017-02-13T08:56:19.374Z,1035.8
2017-02-13T08:57:21.830Z,1035.7
2017-02-13T08:58:24.290Z,1035.7
2017-02-13T08:59:26.795Z,1035.6
2017-02-13T09:00:29.243Z,1035.6
2017-02-13T09:01:31.692Z,1035.6
2017-02-13T09:02:34.003Z,1035.6
2017-02-13T09:03:36.476Z,1035.6
2017-02-13T09:04:38.932Z,1035.6
2017-02-13T09:05:41.404Z,1035.6
2017-02-13T09:07:46.280Z,1035.7
2017-02-13T09:08:48.753Z,1035.6
2017-02-13T09:09:51.209Z,1035.7
2017-02-13T09:10:53.689Z,1035.7
2017-02-13T09:11:56.171Z,1035.6
2017-02-13T09:12:58.626Z,1035.7
2017-02-13T09:14:01.084Z,1035.7
2017-02-13T09:15:03.572Z,1035.8
2017-02-13T09:16:06.033Z,1035.8
2017-02-13T09:17:08.501Z,1035.8
2017-02-13T09:18:10.966Z,1035.8
2017-02-13T09:19:13.361Z,1035.8
2017-02-13T09:20:15.831Z,1035.8
2017-02-13T09:21:18.294Z,1035.8
2017-02-13T09:23:23.168Z,1035.8
2017-02-13T09:24:25.658Z,1035.8
2017-02-13T09:25:27.951Z,1035.9
2017-02-13T09:26:30.415Z,1035.9
2017-02-13T09:27:32.882Z,1035.8
2017-02-13T09:28:35.335Z,1035.9
2017-02-13T09:29:37.627Z,1035.9
2017-02-13T09:30:39.921Z,1035.9
2017-02-13T09:31:42.377Z,1035.9
2017-02-13T09:32:44.858Z,1035.9
2017-02-13T09:34:49.743Z,1035.8
2017-02-13T09:35:52.202Z,1035.9
2017-02-13T09:36:55.027Z,1035.9
2017-02-13T09:37:57.010Z,1035.9
2017-02-13T09:38:59.801Z,1035.9
2017-02-13T09:40:02.259Z,1036
2017-02-13T09:41:04.562Z,1035.9
2017-02-13T09:42:07.038Z,1035.9
2017-02-13T09:43:09.370Z,1036
2017-02-13T09:44:11.825Z,1035.9
2017-02-13T09:45:14.455Z,1035.9
2017-02-13T09:46:16.912Z,1036
2017-02-13T09:47:19.409Z,1036
2017-02-13T09:48:21.872Z,1036
2017-02-13T09:49:24.327Z,1036
2017-02-13T09:50:26.831Z,1036.1
2017-02-13T09:51:29.293Z,1036.1
2017-02-13T09:52:31.745Z,1036
2017-02-13T09:53:34.030Z,1036
2017-02-13T09:54:36.489Z,1035.9
2017-02-13T09:55:38.938Z,1036
2017-02-13T09:56:41.492Z,1036
2017-02-13T09:57:43.783Z,1036
2017-02-13T09:58:46.242Z,1035.9
2017-02-13T09:59:48.702Z,1035.9
2017-02-13T10:00:51.167Z,1035.9
2017-02-13T10:01:53.643Z,1036
2017-02-13T10:02:56.100Z,1036
2017-02-13T10:03:58.548Z,1036
2017-02-13T10:05:01.017Z,1036
2017-02-13T10:06:03.489Z,1036
2017-02-13T10:07:05.937Z,1036
2017-02-13T10:08:08.416Z,1036.1
2017-02-13T10:09:10.714Z,1036
2017-02-13T10:10:13.190Z,1036
2017-02-13T10:11:15.663Z,1036
2017-02-13T10:12:18.131Z,1036.1
2017-02-13T10:13:20.586Z,1036
2017-02-13T10:14:23.051Z,1036
2017-02-13T10:15:25.527Z,1036
2017-02-13T10:16:28.004Z,1036
2017-02-13T10:17:30.456Z,1036
2017-02-13T10:18:32.920Z,1036
2017-02-13T10:19:35.385Z,1036
2017-02-13T10:20:37.837Z,1036
2017-02-13T10:21:40.302Z,1036
2017-02-13T10:22:42.760Z,1036
2017-02-13T10:23:45.218Z,1036
2017-02-13T10:24:47.670Z,1036
2017-02-13T10:25:50.124Z,1036.1
2017-02-13T10:26:52.589Z,1036
2017-02-13T10:27:55.055Z,1036.1
2017-02-13T10:28:57.528Z,1036
2017-02-13T10:30:00.001Z,1036.1
2017-02-13T10:31:02.473Z,1036.1
2017-02-13T10:32:04.931Z,1036.1
2017-02-13T10:33:07.217Z,1036
2017-02-13T10:34:09.684Z,1036
2017-02-13T10:35:12.316Z,1036.1
2017-02-13T10:36:14.778Z,1036.2
2017-02-13T10:37:17.232Z,1036
2017-02-13T10:38:19.682Z,1036.1
2017-02-13T10:39:22.139Z,1036
2017-02-13T10:40:24.590Z,1036
2017-02-13T10:41:27.099Z,1036.1
2017-02-13T10:42:29.557Z,1036.1
2017-02-13T10:43:32.018Z,1036
2017-02-13T10:44:34.485Z,1036
2017-02-13T10:45:36.954Z,1035.9
2017-02-13T10:46:39.411Z,1035.9
2017-02-13T10:47:41.878Z,1035.9
2017-02-13T10:48:44.335Z,1035.9
2017-02-13T10:50:49.196Z,1035.9
2017-02-13T10:51:51.663Z,1035.9
2017-02-13T10:52:54.129Z,1035.9
2017-02-13T10:53:56.597Z,1035.8
2017-02-13T10:56:01.458Z,1035.8
2017-02-13T10:57:03.954Z,1035.8
2017-02-13T10:58:06.244Z,1035.8
2017-02-13T10:59:08.701Z,1035.8
2017-02-13T11:00:11.172Z,1035.8
2017-02-13T11:01:13.855Z,1035.8
2017-02-13T11:02:16.315Z,1035.7
2017-02-13T11:04:21.172Z,1035.8
2017-02-13T11:05:23.625Z,1035.8
2017-02-13T11:06:26.087Z,1035.7
2017-02-13T11:07:28.561Z,1035.7
2017-02-13T11:08:31.025Z,1035.7
2017-02-13T11:09:33.348Z,1035.6
2017-02-13T11:10:35.809Z,1035.7
2017-02-13T11:11:38.258Z,1035.7
2017-02-13T11:12:41.071Z,1035.7
2017-02-13T11:13:43.521Z,1035.7
2017-02-13T11:14:45.989Z,1035.6
2017-02-13T11:15:48.449Z,1035.7
2017-02-13T11:16:50.904Z,1035.7
2017-02-13T11:17:53.354Z,1035.6
2017-02-13T11:18:55.806Z,1035.7
2017-02-13T11:19:58.268Z,1035.7
2017-02-13T11:21:00.748Z,1035.7
2017-02-13T11:22:03.200Z,1035.6
2017-02-13T11:23:05.653Z,1035.6
2017-02-13T11:24:08.121Z,1035.6
2017-02-13T11:25:10.591Z,1035.6
2017-02-13T11:26:12.906Z,1035.5
2017-02-13T11:27:15.222Z,1035.5
2017-02-13T11:28:17.703Z,1035.5
2017-02-13T11:29:20.183Z,1035.5
2017-02-13T11:30:22.678Z,1035.5
2017-02-13T11:31:25.141Z,1035.6
2017-02-13T11:32:27.630Z,1035.5
2017-02-13T11:33:30.151Z,1035.6
2017-02-13T11:34:32.606Z,1035.5
2017-02-13T11:35:35.057Z,1035.5
2017-02-13T11:36:37.523Z,1035.5
2017-02-13T11:37:39.992Z,1035.4
2017-02-13T11:38:42.456Z,1035.5
2017-02-13T11:39:44.956Z,1035.5
2017-02-13T11:40:47.453Z,1035.4
2017-02-13T11:41:49.917Z,1035.4
2017-02-13T11:42:52.377Z,1035.4
2017-02-13T11:43:54.859Z,1035.4
2017-02-13T11:44:57.315Z,1035.4
2017-02-13T11:45:59.797Z,1035.3
2017-02-13T11:47:02.273Z,1035.4
2017-02-13T11:48:04.724Z,1035.4
2017-02-13T11:49:07.365Z,1035.3
2017-02-13T11:50:09.995Z,1035.4
2017-02-13T11:51:12.122Z,1035.4
2017-02-13T11:52:14.573Z,1035.3
2017-02-13T11:53:17.039Z,1035.3
2017-02-13T11:54:19.562Z,1035.4
2017-02-13T11:55:22.061Z,1035.4
2017-02-13T11:56:24.520Z,1035.3
2017-02-13T11:57:26.989Z,1035.4
2017-02-13T11:59:31.857Z,1035.3
2017-02-13T12:00:34.813Z,1035.3
2017-02-13T12:01:37.282Z,1035.4
2017-02-13T12:02:39.762Z,1035.4
2017-02-13T12:03:42.214Z,1035.3
2017-02-13T12:04:44.662Z,1035.3
2017-02-13T12:05:47.119Z,1035.3
2017-02-13T12:06:49.580Z,1035.3
2017-02-13T12:07:52.056Z,1035.3
2017-02-13T12:08:54.520Z,1035.3
2017-02-13T12:09:56.681Z,1035.3
2017-02-13T12:10:59.140Z,1035.2
2017-02-13T12:12:01.604Z,1035.2
2017-02-13T12:13:04.065Z,1035.2
2017-02-13T12:14:06.543Z,1035.2
2017-02-13T12:16:11.910Z,1035.2
2017-02-13T12:17:14.203Z,1035.1
2017-02-13T12:18:16.655Z,1035.2
2017-02-13T12:19:19.160Z,1035.1
2017-02-13T12:20:21.620Z,1035.1
2017-02-13T12:21:24.101Z,1035.1
2017-02-13T12:22:26.595Z,1035.1
2017-02-13T12:23:28.885Z,1035.1
2017-02-13T12:24:31.856Z,1035
2017-02-13T12:25:33.849Z,1035
2017-02-13T12:26:36.357Z,1035
2017-02-13T12:27:38.989Z,1035
2017-02-13T12:28:41.443Z,1035
2017-02-13T12:29:43.916Z,1035
2017-02-13T12:30:46.369Z,1035
2017-02-13T12:31:49.163Z,1035.1
2017-02-13T12:32:51.615Z,1035
2017-02-13T12:33:54.075Z,1034.9
2017-02-13T12:34:56.550Z,1034.9
2017-02-13T12:35:58.848Z,1035
2017-02-13T12:37:01.638Z,1034.9
2017-02-13T12:38:04.114Z,1034.9
2017-02-13T12:39:06.565Z,1034.9
2017-02-13T12:40:08.849Z,1034.8
2017-02-13T12:41:11.196Z,1034.8
2017-02-13T12:42:13.644Z,1034.9
2017-02-13T12:43:16.108Z,1034.9
2017-02-13T12:44:18.589Z,1034.9
2017-02-13T12:46:23.579Z,1034.9
2017-02-13T12:47:26.070Z,1034.9
2017-02-13T12:48:28.531Z,1035
2017-02-13T12:49:31.005Z,1034.9
2017-02-13T12:50:33.488Z,1034.9
2017-02-13T12:51:35.960Z,1034.9
2017-02-13T12:52:38.917Z,1034.9
2017-02-13T12:54:43.787Z,1034.9
2017-02-13T12:55:46.261Z,1034.8
2017-02-13T12:56:48.724Z,1034.9
2017-02-13T12:58:53.577Z,1034.9
2017-02-13T12:59:56.045Z,1034.9
2017-02-13T13:00:58.514Z,1034.9
2017-02-13T13:02:00.978Z,1034.9
2017-02-13T13:03:03.439Z,1034.9
2017-02-13T13:04:05.902Z,1034.8
2017-02-13T13:05:08.366Z,1034.8
2017-02-13T13:06:11.175Z,1034.8
2017-02-13T13:07:13.304Z,1034.7
2017-02-13T13:08:15.782Z,1034.7
2017-02-13T13:09:18.230Z,1034.8
2017-02-13T13:10:21.197Z,1034.9
2017-02-13T13:12:26.072Z,1034.8
2017-02-13T13:13:28.556Z,1034.8
2017-02-13T13:14:31.053Z,1034.8
2017-02-13T13:15:33.356Z,1034.8
2017-02-13T13:16:35.836Z,1034.7
2017-02-13T13:17:38.297Z,1034.8
2017-02-13T13:18:40.752Z,1034.8
2017-02-13T13:19:43.216Z,1034.8
2017-02-13T13:20:46.009Z,1034.7
2017-02-13T13:21:48.474Z,1034.7
2017-02-13T13:22:50.929Z,1034.7
2017-02-13T13:23:53.385Z,1034.8
2017-02-13T13:24:55.836Z,1034.7
2017-02-13T13:25:58.309Z,1034.7
2017-02-13T13:27:00.782Z,1034.7
2017-02-13T13:28:03.246Z,1034.7
2017-02-13T13:29:05.697Z,1034.7
2017-02-13T13:30:08.176Z,1034.7
2017-02-13T13:31:10.817Z,1034.7
2017-02-13T13:32:13.283Z,1034.8
2017-02-13T13:33:15.780Z,1034.9
2017-02-13T13:34:18.245Z,1034.9
2017-02-13T13:35:20.710Z,1034.8
2017-02-13T13:36:23.166Z,1034.8
2017-02-13T13:37:25.629Z,1034.7
2017-02-13T13:38:27.920Z,1034.7
2017-02-13T13:39:30.369Z,1034.8
2017-02-13T13:41:35.728Z,1034.7
2017-02-13T13:42:38.198Z,1034.7
2017-02-13T13:43:40.662Z,1034.7
2017-02-13T13:44:43.128Z,1034.8
2017-02-13T13:45:45.587Z,1034.8
2017-02-13T13:46:48.043Z,1034.7
2017-02-13T13:48:53.240Z,1034.7
2017-02-13T13:49:55.695Z,1034.7
2017-02-13T13:50:58.149Z,1034.7
2017-02-13T13:52:00.606Z,1034.7
2017-02-13T13:53:03.078Z,1034.6
2017-02-13T13:54:05.532Z,1034.7
2017-02-13T13:55:07.815Z,1034.6
2017-02-13T13:56:10.454Z,1034.7
2017-02-13T13:58:15.311Z,1034.7